Airfield :







YOU CAN JOIN US ON...

 
LOGIN :

Register | Disclaimer

   EN    FR    IT 

 









Legend :    VFR   Marginal VFR   IFR   Intensive IFR   Very Intensive IFR
Visi :
Ceiling :
>= 8 km
>= 3000ft
5 to 8 km
1000 to 3000 ft
1500m to 5 km
500 to 1000 ft
800 to 1500m
200 to 500 ft
< 800m
< 200 ft
Symbols :   Thunderstorms  Fog  Heavy snow  Heavy precipitations  Wind > 20 kt






- Airport Elevation : 124 ft
- IATA code : YGV


CYGV - Havre St Pierre

CURRENT METAR :
  • 162016Z AUTO 24020G30KT 2 1/4SM -SN FEW020 SCT026 OVC033 M03/M06 A2970 RMK VIS VRB 1-3 SLP062

EXPIRED METARs :
  • 162002Z AUTO 25021G28KT 2 1/4SM -SN SCT019 BKN026 OVC036 M03/M06 A2969 RMK VIS VRB 1 1/4-3 SLP060
  • 161947Z AUTO 25023G28KT 4SM -SN BKN017 OVC026 M03/M06 A2969 RMK SLP059
  • 161945Z AUTO 25019G26KT 6SM -SN BKN017 OVC026 M03/M06 A2969 RMK SLP059
  • 161934Z AUTO 26022KT 3SM -SN BKN017 OVC024 M03/M06 A2969 RMK SLP058
  • 161927Z AUTO 26017G27KT 2 1/4SM -SN BKN017 OVC025 M03/M06 A2969 RMK SLP058
  • 161907Z AUTO 25017G25KT 3SM -SN FEW017 BKN022 BKN028 OVC036 M03/M06 A2968 RMK SLP055
  • 161849Z AUTO 24015G21KT 7SM -SN SCT017 SCT023 BKN030 OVC035 M03/M06 A2968 RMK SLP054
  • 161836Z AUTO 25016G25KT 6SM -SN BKN019 BKN027 OVC032 M04/M07 A2967 RMK SLP053
  • 161815Z AUTO 25014G27KT 4SM -SN BKN021 OVC028 M04/M07 A2967 RMK SLP052
  • 161800Z AUTO 25020G30KT 5SM -SN BKN021 OVC028 M03/M07 A2967 RMK SLP050
  • 161759Z AUTO 25019G30KT 5SM -SN BKN021 OVC028 M03/M07 A2967 RMK SLP050
  • 161743Z AUTO 24019G27KT 6SM -SN BKN021 OVC026 M04/M08 A2967 RMK SLP052
  • 161733Z AUTO 24018G29KT 6SM -SN FEW015 OVC023 M04/M07 A2967 RMK SLP050
  • 161722Z AUTO 25020G30KT 1 3/4SM -SN SCT014 BKN021 OVC027 M04/M07 A2967 RMK VIS VRB 3/4-3 SLP051

TAF TAF CYGV
Valid from the 16 at 20:00 until the 17 at 08:00 UTC


161938Z 1620/1708 25015G25KT P6SM BKN030
TEMPO 1620/1624 21/2SM -SHSN
PROB30 1620/1624 2SM -SHSN
FM170000 26010G20KT P6SM SCT030
TEMPO 1700/1702 BKN020 BKN030
FM170200 25010KT P6SM FEW030 RMK FCST BASED ON AUTO OBS. NXT FCST BY 170200Z



MET'MAP, your aeronautical weather chart ! - Copyright ORBIFLY December 2007 - Disclaimer

ORBIFLY MET'MAP TEAM :

Programming & Development : Alexandra Zaïnal
Concept & original design : Baudouin d'Aumeries
Assistance for programming : Marc-Olivier Méhu
Technical & hardware support : Manuel Goepfert

Contact : metmap@orbifly.com




SOURCES & CREDITS :

   NOAA